createdAt,value
2018-06-05T00:01:05.498Z,16.90
2018-06-05T00:03:35.504Z,16.90
2018-06-05T00:06:05.545Z,16.70
2018-06-05T00:08:35.590Z,16.70
2018-06-05T00:11:05.634Z,16.70
2018-06-05T00:13:35.656Z,16.70
2018-06-05T00:16:05.709Z,16.70
2018-06-05T00:18:35.700Z,16.70
2018-06-05T00:21:05.773Z,16.70
2018-06-05T00:23:35.808Z,16.70
2018-06-05T00:26:05.897Z,16.70
2018-06-05T00:28:35.881Z,16.70
2018-06-05T00:31:05.885Z,16.60
2018-06-05T00:33:35.882Z,16.60
2018-06-05T00:36:05.953Z,16.50
2018-06-05T00:38:35.966Z,16.50
2018-06-05T00:41:06.009Z,16.50
2018-06-05T00:43:35.941Z,16.40
2018-06-05T00:46:05.947Z,16.50
2018-06-05T00:48:35.914Z,16.40
2018-06-05T00:51:21.294Z,16.40
2018-06-05T00:53:51.330Z,16.40
2018-06-05T00:56:21.334Z,16.30
2018-06-05T00:58:51.352Z,16.30
2018-06-05T01:01:21.398Z,16.20
2018-06-05T01:03:51.379Z,16.20
2018-06-05T01:06:21.441Z,16.20
2018-06-05T01:08:51.497Z,16.20
2018-06-05T01:11:21.503Z,16.10
2018-06-05T01:13:51.506Z,16.00
2018-06-05T01:16:21.526Z,16.00
2018-06-05T01:18:51.527Z,16.00
2018-06-05T01:21:21.533Z,16.00
2018-06-05T01:23:51.536Z,16.00
2018-06-05T01:26:21.569Z,16.00
2018-06-05T01:28:51.564Z,16.10
2018-06-05T01:31:21.594Z,16.00
2018-06-05T01:33:51.579Z,16.10
2018-06-05T01:36:21.617Z,16.10
2018-06-05T01:38:51.606Z,16.00
2018-06-05T01:41:21.620Z,16.00
2018-06-05T01:43:51.620Z,16.00
2018-06-05T01:46:21.611Z,15.90
2018-06-05T01:48:51.622Z,15.90
2018-06-05T01:51:21.604Z,15.80
2018-06-05T01:53:51.658Z,15.80
2018-06-05T01:56:21.648Z,15.70
2018-06-05T01:58:51.635Z,15.70
2018-06-05T02:03:51.240Z,15.50
2018-06-05T02:06:21.199Z,15.50
2018-06-05T02:08:51.184Z,15.40
2018-06-05T02:11:21.135Z,15.40
2018-06-05T02:13:51.143Z,15.40
2018-06-05T02:16:21.141Z,15.50
2018-06-05T02:18:51.142Z,15.40
2018-06-05T02:21:21.138Z,15.40
2018-06-05T02:23:51.160Z,15.40
2018-06-05T02:26:21.169Z,15.30
2018-06-05T02:28:51.204Z,15.30
2018-06-05T02:31:21.191Z,15.20
2018-06-05T02:33:51.325Z,15.20
2018-06-05T02:38:50.993Z,15.10
2018-06-05T02:41:21.006Z,15.10
2018-06-05T02:43:51.939Z,15.00
2018-06-05T02:46:22.610Z,15.10
2018-06-05T02:48:52.640Z,15.10
2018-06-05T02:51:22.637Z,15.00
2018-06-05T02:53:52.762Z,15.00
2018-06-05T02:56:22.772Z,15.00
2018-06-05T02:58:52.787Z,14.90
2018-06-05T03:01:22.835Z,14.90
2018-06-05T03:03:52.827Z,14.90
2018-06-05T03:06:22.795Z,14.90
2018-06-05T03:08:52.836Z,14.80
2018-06-05T03:11:22.879Z,14.80
2018-06-05T03:13:52.914Z,14.70
2018-06-05T03:16:22.887Z,14.80
2018-06-05T03:18:52.933Z,14.70
2018-06-05T03:21:22.922Z,14.80
2018-06-05T03:23:53.006Z,14.70
2018-06-05T03:26:22.990Z,14.70
2018-06-05T03:28:53.020Z,14.80
2018-06-05T03:31:23.050Z,14.70
2018-06-05T03:33:53.070Z,14.70
2018-06-05T03:36:23.084Z,14.70
2018-06-05T03:38:53.134Z,14.70
2018-06-05T03:41:23.192Z,14.60
2018-06-05T03:43:53.226Z,14.70
2018-06-05T03:46:23.255Z,14.70
2018-06-05T03:48:53.636Z,14.70
2018-06-05T03:51:23.648Z,14.70
2018-06-05T03:53:53.725Z,14.70
2018-06-05T03:58:53.398Z,14.70
2018-06-05T04:01:23.385Z,14.70
2018-06-05T04:03:53.442Z,14.70
2018-06-05T04:06:23.486Z,14.70
2018-06-05T04:08:53.556Z,14.70
2018-06-05T04:11:23.614Z,14.70
2018-06-05T04:13:53.617Z,14.70
2018-06-05T04:16:23.647Z,14.70
2018-06-05T04:18:53.594Z,14.70
2018-06-05T04:21:23.612Z,14.70
2018-06-05T04:23:53.581Z,14.70
2018-06-05T04:26:23.563Z,14.70
2018-06-05T04:28:53.526Z,14.70
2018-06-05T04:31:23.528Z,14.70
2018-06-05T04:33:53.502Z,14.70
2018-06-05T04:36:23.553Z,14.70
2018-06-05T04:38:53.542Z,14.80
2018-06-05T04:41:23.535Z,14.90
2018-06-05T04:43:53.517Z,14.90
2018-06-05T04:46:23.540Z,15.00
2018-06-05T04:51:23.183Z,15.10
2018-06-05T04:53:53.184Z,15.20
2018-06-05T04:56:23.160Z,15.30
2018-06-05T04:58:53.145Z,15.50
2018-06-05T05:01:23.256Z,15.60
2018-06-05T05:03:53.303Z,15.70
2018-06-05T05:06:23.363Z,15.80
2018-06-05T05:08:53.403Z,15.90
2018-06-05T05:11:23.469Z,15.90
2018-06-05T05:13:53.488Z,16.10
2018-06-05T05:16:23.557Z,16.20
2018-06-05T05:18:53.618Z,16.40
2018-06-05T05:21:23.660Z,16.50
2018-06-05T05:23:53.672Z,16.80
2018-06-05T05:26:23.717Z,17.00
2018-06-05T05:28:53.748Z,17.20
2018-06-05T05:31:23.808Z,17.50
2018-06-05T05:36:23.497Z,18.10
2018-06-05T05:38:53.526Z,18.20
2018-06-05T05:41:23.542Z,18.30
2018-06-05T05:43:53.509Z,18.60
2018-06-05T05:46:23.556Z,18.80
2018-06-05T05:48:53.581Z,18.70
2018-06-05T05:51:23.639Z,18.80
2018-06-05T05:53:53.706Z,18.90
2018-06-05T05:56:23.761Z,19.00
2018-06-05T05:58:53.771Z,19.30
2018-06-05T06:01:23.825Z,19.30
2018-06-05T06:03:54.070Z,19.30
2018-06-05T06:06:24.137Z,19.50
2018-06-05T06:08:54.183Z,19.70
2018-06-05T06:11:24.225Z,19.60
2018-06-05T06:13:54.907Z,19.70
2018-06-05T06:16:24.960Z,19.70
2018-06-05T06:18:54.987Z,19.80
2018-06-05T06:21:25.097Z,19.90
2018-06-05T06:23:55.197Z,20.00
2018-06-05T06:26:25.237Z,19.90
2018-06-05T06:28:55.290Z,19.80
2018-06-05T06:31:25.346Z,20.00
2018-06-05T06:33:55.386Z,19.90
2018-06-05T06:36:25.388Z,19.90
2018-06-05T06:38:55.450Z,20.00
2018-06-05T06:41:25.489Z,19.90
2018-06-05T06:43:55.524Z,20.00
2018-06-05T06:46:25.521Z,20.40
2018-06-05T06:48:55.659Z,20.40
2018-06-05T06:51:25.599Z,20.50
2018-06-05T06:53:55.672Z,20.60
2018-06-05T06:56:25.716Z,20.60
2018-06-05T06:58:55.766Z,20.70
2018-06-05T07:01:25.780Z,20.70
2018-06-05T07:03:55.811Z,21.00
2018-06-05T07:06:25.849Z,21.10
2018-06-05T07:08:55.902Z,21.00
2018-06-05T07:11:25.944Z,21.00
2018-06-05T07:13:55.944Z,21.00
2018-06-05T07:16:25.938Z,21.10
2018-06-05T07:18:55.968Z,21.30
2018-06-05T07:21:25.960Z,21.30
2018-06-05T07:23:56.005Z,21.30
2018-06-05T07:26:26.604Z,21.30
2018-06-05T07:28:56.608Z,21.30
2018-06-05T07:31:26.652Z,21.60
2018-06-05T07:33:56.734Z,21.60
2018-06-05T07:36:26.746Z,21.40
2018-06-05T07:38:56.726Z,21.40
2018-06-05T07:41:26.679Z,21.50
2018-06-05T07:43:56.675Z,21.60
2018-06-05T07:46:26.639Z,21.80
2018-06-05T07:48:56.617Z,21.90
2018-06-05T07:51:26.540Z,21.80
2018-06-05T07:53:56.559Z,21.90
2018-06-05T07:56:26.596Z,22.00
2018-06-05T07:58:56.652Z,22.10
2018-06-05T08:01:26.678Z,21.80
2018-06-05T08:03:56.723Z,22.10
2018-06-05T08:06:26.755Z,22.30
2018-06-05T08:08:56.840Z,22.10
2018-06-05T08:11:26.832Z,21.80
2018-06-05T08:13:56.843Z,22.00
2018-06-05T08:16:26.882Z,21.90
2018-06-05T08:18:56.894Z,22.00
2018-06-05T08:21:26.886Z,22.10
2018-06-05T08:23:56.909Z,22.30
2018-06-05T08:26:52.178Z,22.20
2018-06-05T08:29:22.731Z,22.30
2018-06-05T08:31:53.384Z,22.20
2018-06-05T08:34:23.454Z,22.30
2018-06-05T08:36:53.490Z,22.40
2018-06-05T08:41:53.137Z,22.30
2018-06-05T08:44:23.105Z,22.20
2018-06-05T08:46:53.058Z,22.30
2018-06-05T08:49:23.074Z,22.40
2018-06-05T08:51:53.007Z,22.50
2018-06-05T08:54:23.007Z,22.50
2018-06-05T08:56:52.983Z,22.60
2018-06-05T08:59:23.010Z,22.70
2018-06-05T09:01:53.054Z,22.60
2018-06-05T09:04:23.059Z,22.70
2018-06-05T09:06:53.016Z,22.80
2018-06-05T09:09:23.039Z,22.90
2018-06-05T09:11:53.010Z,22.90
2018-06-05T09:14:22.987Z,23.00
2018-06-05T09:16:52.926Z,23.10
2018-06-05T09:19:22.919Z,23.00
2018-06-05T09:21:52.887Z,23.10
2018-06-05T09:24:22.858Z,23.30
2018-06-05T09:26:52.860Z,23.60
2018-06-05T09:29:22.806Z,23.60
2018-06-05T09:31:52.773Z,23.70
2018-06-05T09:34:22.757Z,23.90
2018-06-05T09:36:52.815Z,24.00
2018-06-05T09:39:22.844Z,24.00
2018-06-05T09:41:52.848Z,24.10
2018-06-05T09:44:22.844Z,24.10
2018-06-05T09:46:53.010Z,24.20
2018-06-05T09:49:22.993Z,24.20
2018-06-05T09:51:52.975Z,24.20
2018-06-05T09:54:22.987Z,24.40
2018-06-05T09:56:53.022Z,24.60
2018-06-05T09:59:23.060Z,24.60
2018-06-05T10:01:53.117Z,24.60
2018-06-05T10:04:23.158Z,24.40
2018-06-05T10:06:53.209Z,24.50
2018-06-05T10:09:23.223Z,24.40
2018-06-05T10:11:53.361Z,24.60
2018-06-05T10:14:23.412Z,24.60
2018-06-05T10:16:53.459Z,24.70
2018-06-05T10:19:23.474Z,24.80
2018-06-05T10:21:53.506Z,25.00
2018-06-05T10:24:23.581Z,25.30
2018-06-05T10:26:53.623Z,25.30
2018-06-05T10:29:23.662Z,25.20
2018-06-05T10:31:54.078Z,25.30
2018-06-05T10:34:24.077Z,25.30
2018-06-05T10:36:54.123Z,25.30
2018-06-05T10:39:24.103Z,25.40
2018-06-05T10:41:54.134Z,25.40
2018-06-05T10:44:24.084Z,25.40
2018-06-05T10:46:54.083Z,25.70
2018-06-05T10:49:24.046Z,25.60
2018-06-05T10:51:54.052Z,25.60
2018-06-05T10:54:24.120Z,25.40
2018-06-05T10:56:54.150Z,25.40
2018-06-05T10:59:24.080Z,25.40
2018-06-05T11:01:54.097Z,25.40
2018-06-05T11:04:24.019Z,25.50
2018-06-05T11:06:53.938Z,25.50
2018-06-05T11:09:23.868Z,25.50
2018-06-05T11:11:53.880Z,25.70
2018-06-05T11:14:23.819Z,25.70
2018-06-05T11:16:53.746Z,25.80
2018-06-05T11:19:23.680Z,25.60
2018-06-05T11:21:53.656Z,25.60
2018-06-05T11:24:23.912Z,25.50
2018-06-05T11:26:53.902Z,25.70
2018-06-05T11:29:23.848Z,25.90
2018-06-05T11:31:53.818Z,25.70
2018-06-05T11:34:23.787Z,25.80
2018-06-05T11:36:53.802Z,25.60
2018-06-05T11:39:23.707Z,25.80
2018-06-05T11:41:53.696Z,25.80
2018-06-05T11:44:23.664Z,25.90
2018-06-05T11:46:53.915Z,25.80
2018-06-05T11:49:23.936Z,25.90
2018-06-05T11:51:54.015Z,25.90
2018-06-05T11:54:24.022Z,25.80
2018-06-05T11:56:53.995Z,25.80
2018-06-05T11:59:24.027Z,25.80
2018-06-05T12:01:54.143Z,25.60
2018-06-05T12:04:24.109Z,25.60
2018-06-05T12:06:54.173Z,25.80
2018-06-05T12:09:24.114Z,25.80
2018-06-05T12:14:23.735Z,25.80
2018-06-05T12:16:53.764Z,25.60
2018-06-05T12:19:23.834Z,25.60
2018-06-05T12:21:53.806Z,25.30
2018-06-05T12:24:23.768Z,25.40
2018-06-05T12:26:53.867Z,25.50
2018-06-05T12:29:23.904Z,25.30
2018-06-05T12:31:53.906Z,25.60
2018-06-05T12:34:23.937Z,25.50
2018-06-05T12:36:53.949Z,25.50
2018-06-05T12:39:23.963Z,25.60
2018-06-05T12:41:53.925Z,25.60
2018-06-05T12:44:23.923Z,25.80
2018-06-05T12:46:53.899Z,26.00
2018-06-05T12:49:23.869Z,26.10
2018-06-05T12:51:53.801Z,26.10
2018-06-05T12:54:23.809Z,26.20
2018-06-05T12:56:53.766Z,26.40
2018-06-05T12:59:23.796Z,26.60
2018-06-05T13:01:53.717Z,26.60
2018-06-05T13:04:23.706Z,26.60
2018-06-05T13:06:53.650Z,26.50
2018-06-05T13:09:23.663Z,26.50
2018-06-05T13:11:53.762Z,26.60
2018-06-05T13:14:23.753Z,26.70
2018-06-05T13:16:53.747Z,26.60
2018-06-05T13:19:23.737Z,26.60
2018-06-05T13:21:53.728Z,26.60
2018-06-05T13:24:23.766Z,26.50
2018-06-05T13:26:58.113Z,26.60
2018-06-05T13:29:28.127Z,26.60
2018-06-05T13:31:58.103Z,26.50
2018-06-05T13:34:28.276Z,26.30
2018-06-05T13:36:58.239Z,26.20
2018-06-05T13:39:28.281Z,26.30
2018-06-05T13:41:58.283Z,26.20
2018-06-05T13:44:28.254Z,26.50
2018-06-05T13:46:58.203Z,26.60
2018-06-05T13:49:28.216Z,26.60
2018-06-05T13:51:58.165Z,26.70
2018-06-05T13:54:28.180Z,26.70
2018-06-05T13:56:58.105Z,26.80
2018-06-05T13:59:28.075Z,26.50
2018-06-05T14:01:58.016Z,26.40
2018-06-05T14:04:28.001Z,26.20
2018-06-05T14:06:57.961Z,26.20
2018-06-05T14:09:27.911Z,26.30
2018-06-05T14:11:57.903Z,26.30
2018-06-05T14:14:27.871Z,26.30
2018-06-05T14:16:57.887Z,26.40
2018-06-05T14:19:28.118Z,26.40
2018-06-05T14:21:58.170Z,26.50
2018-06-05T14:24:28.180Z,26.60
2018-06-05T14:26:58.202Z,26.60
2018-06-05T14:29:28.232Z,26.60
2018-06-05T14:31:58.218Z,26.60
2018-06-05T14:34:28.209Z,26.40
2018-06-05T14:36:58.186Z,26.20
2018-06-05T14:39:28.121Z,26.20
2018-06-05T14:41:58.089Z,26.10
2018-06-05T14:44:28.054Z,26.20
2018-06-05T14:46:58.009Z,26.40
2018-06-05T14:49:28.032Z,26.60
2018-06-05T14:51:57.995Z,26.60
2018-06-05T14:54:27.998Z,26.60
2018-06-05T14:56:57.970Z,26.60
2018-06-05T14:59:27.978Z,26.70
2018-06-05T15:01:57.989Z,26.70
2018-06-05T15:04:28.077Z,26.80
2018-06-05T15:06:58.164Z,26.90
2018-06-05T15:09:28.153Z,26.70
2018-06-05T15:11:58.174Z,26.60
2018-06-05T15:14:28.171Z,26.60
2018-06-05T15:16:58.196Z,26.80
2018-06-05T15:19:28.152Z,26.60
2018-06-05T15:21:58.434Z,26.20
2018-06-05T15:24:28.381Z,26.20
2018-06-05T15:26:58.349Z,26.30
2018-06-05T15:29:28.345Z,26.40
2018-06-05T15:31:58.347Z,26.60
2018-06-05T15:34:28.288Z,26.50
2018-06-05T15:36:58.301Z,26.40
2018-06-05T15:39:28.253Z,26.50
2018-06-05T15:41:58.332Z,26.50
2018-06-05T15:44:28.286Z,26.60
2018-06-05T15:46:58.270Z,26.70
2018-06-05T15:49:28.203Z,26.40
2018-06-05T15:54:27.772Z,26.30
2018-06-05T15:56:57.750Z,26.20
2018-06-05T15:59:27.722Z,26.10
2018-06-05T16:01:57.714Z,26.00
2018-06-05T16:04:27.697Z,25.80
2018-06-05T16:09:27.292Z,25.70
2018-06-05T16:11:57.349Z,25.80
2018-06-05T16:14:27.356Z,25.80
2018-06-05T16:16:57.456Z,25.80
2018-06-05T16:19:27.522Z,25.90
2018-06-05T16:21:57.505Z,25.80
2018-06-05T16:24:27.506Z,25.80
2018-06-05T16:26:57.631Z,25.80
2018-06-05T16:29:27.683Z,25.90
2018-06-05T16:31:57.863Z,25.80
2018-06-05T16:34:28.462Z,26.00
2018-06-05T16:39:28.174Z,25.70
2018-06-05T16:41:58.293Z,25.80
2018-06-05T16:44:28.313Z,25.80
2018-06-05T16:46:58.264Z,25.70
2018-06-05T16:49:28.284Z,25.70
2018-06-05T16:51:58.268Z,25.70
2018-06-05T16:54:28.301Z,25.50
2018-06-05T16:56:58.277Z,25.30
2018-06-05T16:59:28.438Z,25.30
2018-06-05T17:01:58.924Z,25.30
2018-06-05T17:04:29.097Z,25.30
2018-06-05T17:06:59.082Z,25.40
2018-06-05T17:09:29.110Z,25.30
2018-06-05T17:11:59.194Z,25.40
2018-06-05T17:14:29.280Z,25.30
2018-06-05T17:16:59.414Z,25.40
2018-06-05T17:19:29.531Z,25.40
2018-06-05T17:21:59.499Z,25.20
2018-06-05T17:24:29.557Z,25.10
2018-06-05T17:26:59.642Z,24.80
2018-06-05T17:29:29.785Z,24.80
2018-06-05T17:31:59.986Z,24.70
2018-06-05T17:36:59.901Z,24.40
2018-06-05T17:39:29.985Z,24.50
2018-06-05T17:42:00.079Z,24.20
2018-06-05T17:44:30.099Z,24.20
2018-06-05T17:47:00.138Z,24.20
2018-06-05T17:49:30.191Z,24.10
2018-06-05T17:52:00.676Z,24.00
2018-06-05T17:54:30.866Z,23.90
2018-06-05T17:57:00.808Z,23.90
2018-06-05T17:59:30.982Z,23.70
2018-06-05T18:02:00.978Z,23.70
2018-06-05T18:04:30.958Z,23.60
2018-06-05T18:07:00.927Z,23.70
2018-06-05T18:09:31.823Z,23.50
2018-06-05T18:14:44.420Z,23.50
2018-06-05T18:17:14.385Z,23.60
2018-06-05T18:19:44.437Z,23.40
2018-06-05T18:22:14.408Z,23.30
2018-06-05T18:24:44.464Z,23.30
2018-06-05T18:27:14.471Z,23.30
2018-06-05T18:29:44.477Z,23.40
2018-06-05T18:32:14.434Z,23.30
2018-06-05T18:34:44.424Z,23.30
2018-06-05T18:37:14.501Z,23.30
2018-06-05T18:39:44.660Z,23.30
2018-06-05T18:42:14.644Z,23.10
2018-06-05T18:44:44.671Z,23.10
2018-06-05T18:47:14.674Z,23.00
2018-06-05T18:49:45.291Z,23.00
2018-06-05T18:52:15.385Z,23.00
2018-06-05T18:54:45.792Z,22.90
2018-06-05T18:57:15.880Z,22.90
2018-06-05T18:59:45.995Z,22.80
2018-06-05T19:02:16.171Z,22.80
2018-06-05T19:04:46.194Z,22.70
2018-06-05T19:07:16.126Z,22.60
2018-06-05T19:09:46.189Z,22.60
2018-06-05T19:12:16.240Z,22.50
2018-06-05T19:14:46.199Z,22.50
2018-06-05T19:17:16.425Z,22.40
2018-06-05T19:19:46.475Z,22.40
2018-06-05T19:22:16.581Z,22.40
2018-06-05T19:24:46.685Z,22.30
2018-06-05T19:27:16.927Z,22.30
2018-06-05T19:29:47.033Z,22.20
2018-06-05T19:34:46.688Z,22.10
2018-06-05T19:37:16.906Z,22.00
2018-06-05T19:39:46.915Z,21.90
2018-06-05T19:42:16.942Z,21.90
2018-06-05T19:44:47.032Z,21.80
2018-06-05T19:47:17.149Z,21.80
2018-06-05T19:49:47.364Z,21.70
2018-06-05T19:52:17.440Z,21.60
2018-06-05T19:54:47.584Z,21.50
2018-06-05T19:57:18.169Z,21.40
2018-06-05T19:59:49.046Z,21.40
2018-06-05T20:02:19.294Z,21.30
2018-06-05T20:04:49.414Z,21.30
2018-06-05T20:07:19.490Z,21.30
2018-06-05T20:09:49.565Z,21.30
2018-06-05T20:12:19.845Z,21.30
2018-06-05T20:14:49.791Z,21.20
2018-06-05T20:17:20.098Z,21.20
2018-06-05T20:19:50.131Z,21.20
2018-06-05T20:22:20.125Z,21.10
2018-06-05T20:24:53.176Z,21.10
2018-06-05T20:29:52.745Z,21.00
2018-06-05T20:32:22.991Z,21.00
2018-06-05T20:34:53.002Z,21.00
2018-06-05T20:37:23.354Z,20.90
2018-06-05T20:39:53.355Z,20.90
2018-06-05T20:42:23.706Z,20.90
2018-06-05T20:44:53.711Z,20.80
2018-06-05T20:47:23.811Z,20.70
2018-06-05T20:49:53.831Z,20.60
2018-06-05T20:52:24.423Z,20.60
2018-06-05T20:54:54.565Z,20.50
2018-06-05T20:57:26.203Z,20.50
2018-06-05T20:59:56.486Z,20.50
2018-06-05T21:02:26.661Z,20.40
2018-06-05T21:04:57.142Z,20.30
2018-06-05T21:07:27.365Z,20.20
2018-06-05T21:09:57.464Z,20.20
2018-06-05T21:12:27.562Z,20.30
2018-06-05T21:14:57.529Z,20.20
2018-06-05T21:17:27.691Z,20.20
2018-06-05T21:19:57.809Z,20.10
2018-06-05T21:22:28.095Z,20.10
2018-06-05T21:24:58.090Z,20.10
2018-06-05T21:27:28.327Z,20.10
2018-06-05T21:29:58.340Z,20.00
2018-06-05T21:32:28.462Z,20.00
2018-06-05T21:34:58.431Z,19.90
2018-06-05T21:37:28.654Z,19.90
2018-06-05T21:39:58.752Z,19.90
2018-06-05T21:42:29.081Z,19.90
2018-06-05T21:44:59.054Z,19.80
2018-06-05T21:47:29.422Z,19.80
2018-06-05T21:49:59.395Z,19.70
2018-06-05T21:52:29.457Z,19.80
2018-06-05T21:54:59.515Z,19.70
2018-06-05T21:57:29.626Z,19.60
2018-06-05T21:59:59.590Z,19.60
2018-06-05T22:04:59.168Z,19.40
2018-06-05T22:07:29.187Z,19.40
2018-06-05T22:09:59.163Z,19.40
2018-06-05T22:14:59.448Z,19.40
2018-06-05T22:17:29.531Z,19.30
2018-06-05T22:19:59.524Z,19.30
2018-06-05T22:22:29.585Z,19.20
2018-06-05T22:24:59.562Z,19.10
2018-06-05T22:27:29.617Z,19.10
2018-06-05T22:29:59.594Z,19.10
2018-06-05T22:32:29.638Z,19.10
2018-06-05T22:34:59.633Z,19.00
2018-06-05T22:37:29.640Z,19.00
2018-06-05T22:39:59.630Z,19.00
2018-06-05T22:42:29.686Z,19.00
2018-06-05T22:44:59.659Z,19.00
2018-06-05T22:47:29.626Z,19.00
2018-06-05T22:49:59.615Z,18.90
2018-06-05T22:52:29.668Z,18.90
2018-06-05T22:54:59.674Z,18.90
2018-06-05T22:57:29.767Z,18.80
2018-06-05T22:59:59.770Z,18.80
2018-06-05T23:02:30.005Z,18.70
2018-06-05T23:07:29.670Z,18.70
2018-06-05T23:09:59.666Z,18.60
2018-06-05T23:14:59.292Z,18.40
2018-06-05T23:17:29.374Z,18.30
2018-06-05T23:19:59.373Z,18.20
2018-06-05T23:22:29.486Z,18.20
2018-06-05T23:24:59.519Z,18.10
2018-06-05T23:27:30.207Z,18.00
2018-06-05T23:30:00.204Z,18.00
2018-06-05T23:32:30.324Z,18.00
2018-06-05T23:35:00.327Z,18.00
2018-06-05T23:37:30.403Z,18.00
2018-06-05T23:40:00.418Z,17.90
2018-06-05T23:45:00.088Z,17.80
2018-06-05T23:47:30.146Z,17.70
2018-06-05T23:50:00.143Z,17.70
2018-06-05T23:52:30.210Z,17.60
2018-06-05T23:55:00.224Z,17.50
2018-06-05T23:57:30.270Z,17.40
